Time,TemperatureF,DewpointF,PressureIn,WindDirection,WindDirectionDegrees,WindSpeedMPH,WindSpeedGustMPH,Humidity,HourlyPrecipIn,Conditions,Clouds,dailyrainin,SoftwareType,DateUTC
2013-08-06 00:00:00,57.0,40.5,29.92,ESE,121,1.0,1.0,54,0.00,,,0.00,Wunderground v.1.15,2013-08-06 07:00:00,
2013-08-06 00:10:00,56.6,41.1,29.92,ESE,121,0.0,0.0,56,0.00,,,0.00,Wunderground v.1.15,2013-08-06 07:10:00,
2013-08-06 00:15:00,56.3,40.8,29.92,ESE,121,0.0,1.0,56,0.00,,,0.00,Wunderground v.1.15,2013-08-06 07:15:00,
2013-08-06 00:25:00,55.6,40.1,29.92,ESE,121,0.0,0.0,56,0.00,,,0.00,Wunderground v.1.15,2013-08-06 07:25:00,
2013-08-06 00:30:00,55.3,40.3,29.93,ESE,121,0.0,0.0,57,0.00,,,0.00,Wunderground v.1.15,2013-08-06 07:30:00,
2013-08-06 00:35:00,55.1,40.6,29.93,ESE,121,0.0,0.0,58,0.00,,,0.00,Wunderground v.1.15,2013-08-06 07:35:00,
2013-08-06 00:40:00,55.0,40.5,29.93,ESE,121,0.0,0.0,58,0.00,,,0.00,Wunderground v.1.15,2013-08-06 07:40:00,
2013-08-06 00:50:00,54.5,40.0,29.93,ESE,121,0.0,0.0,58,0.00,,,0.00,Wunderground v.1.15,2013-08-06 07:50:00,
2013-08-06 00:55:00,54.2,40.2,29.93,ESE,121,0.0,0.0,59,0.00,,,0.00,Wunderground v.1.15,2013-08-06 07:55:00,
2013-08-06 01:00:00,53.9,39.9,29.93,ESE,121,0.0,0.0,59,0.00,,,0.00,Wunderground v.1.15,2013-08-06 08:00:00,
2013-08-06 01:05:00,53.9,39.9,29.93,ESE,121,0.0,0.0,59,0.00,,,0.00,Wunderground v.1.15,2013-08-06 08:05:00,
2013-08-06 01:15:00,53.5,39.9,29.93,ESE,121,0.0,0.0,60,0.00,,,0.00,Wunderground v.1.15,2013-08-06 08:15:00,
2013-08-06 01:20:00,53.3,40.2,29.93,ESE,121,0.0,0.0,61,0.00,,,0.00,Wunderground v.1.15,2013-08-06 08:20:00,
2013-08-06 01:25:00,53.1,40.0,29.93,ESE,121,0.0,0.0,61,0.00,,,0.00,Wunderground v.1.15,2013-08-06 08:25:00,
2013-08-06 01:30:00,52.9,39.8,29.93,ESE,121,0.0,0.0,61,0.00,,,0.00,Wunderground v.1.15,2013-08-06 08:30:00,
2013-08-06 01:35:00,52.8,39.7,29.93,ESE,121,0.0,0.0,61,0.00,,,0.00,Wunderground v.1.15,2013-08-06 08:35:00,
2013-08-06 01:45:00,52.2,39.6,29.93,ESE,121,1.0,3.0,62,0.00,,,0.00,Wunderground v.1.15,2013-08-06 08:45:00,
2013-08-06 01:50:00,52.0,39.8,29.93,ESE,121,1.0,1.0,63,0.00,,,0.00,Wunderground v.1.15,2013-08-06 08:50:00,
2013-08-06 01:55:00,51.9,39.7,29.93,ESE,121,1.0,1.0,63,0.00,,,0.00,Wunderground v.1.15,2013-08-06 08:55:00,
2013-08-06 02:05:00,51.6,39.4,29.94,ESE,121,0.0,1.0,63,0.00,,,0.00,Wunderground v.1.15,2013-08-06 09:05:00,
2013-08-06 02:10:00,51.3,39.5,29.94,ESE,121,0.0,0.0,64,0.00,,,0.00,Wunderground v.1.15,2013-08-06 09:10:00,
2013-08-06 02:15:00,51.1,39.3,29.94,ESE,121,0.0,0.0,64,0.00,,,0.00,Wunderground v.1.15,2013-08-06 09:15:00,
2013-08-06 02:20:00,51.0,39.2,29.94,ESE,121,0.0,0.0,64,0.00,,,0.00,Wunderground v.1.15,2013-08-06 09:20:00,
2013-08-06 02:30:00,50.4,39.1,29.94,ESE,121,0.0,0.0,65,0.00,,,0.00,Wunderground v.1.15,2013-08-06 09:30:00,
2013-08-06 02:35:00,50.1,39.2,29.94,ESE,121,0.0,0.0,66,0.00,,,0.00,Wunderground v.1.15,2013-08-06 09:35:00,
2013-08-06 02:40:00,49.9,39.0,29.94,ESE,121,0.0,0.0,66,0.00,,,0.00,Wunderground v.1.15,2013-08-06 09:40:00,
2013-08-06 02:45:00,49.9,39.0,29.94,ESE,121,0.0,0.0,66,0.00,,,0.00,Wunderground v.1.15,2013-08-06 09:45:00,
2013-08-06 02:55:00,49.8,39.3,29.94,ESE,121,0.0,0.0,67,0.00,,,0.00,Wunderground v.1.15,2013-08-06 09:55:00,
2013-08-06 03:00:00,49.8,39.3,29.94,ESE,121,0.0,0.0,67,0.00,,,0.00,Wunderground v.1.15,2013-08-06 10:00:00,
2013-08-06 03:05:00,49.6,39.1,29.94,ESE,121,0.0,0.0,67,0.00,,,0.00,Wunderground v.1.15,2013-08-06 10:05:00,
2013-08-06 03:10:00,49.6,39.1,29.94,ESE,121,0.0,0.0,67,0.00,,,0.00,Wunderground v.1.15,2013-08-06 10:10:00,
2013-08-06 03:20:00,49.5,39.4,29.94,ESE,121,0.0,0.0,68,0.00,,,0.00,Wunderground v.1.15,2013-08-06 10:20:00,
2013-08-06 03:25:00,49.4,39.3,29.94,ESE,121,0.0,0.0,68,0.00,,,0.00,Wunderground v.1.15,2013-08-06 10:25:00,
2013-08-06 03:30:00,49.2,38.7,29.94,ESE,121,0.0,0.0,67,0.00,,,0.00,Wunderground v.1.15,2013-08-06 10:30:00,
2013-08-06 03:40:00,48.9,38.8,29.94,ESE,121,0.0,0.0,68,0.00,,,0.00,Wunderground v.1.15,2013-08-06 10:40:00,
2013-08-06 03:50:00,48.5,38.8,29.94,ESE,121,0.0,0.0,69,0.00,,,0.00,Wunderground v.1.15,2013-08-06 10:50:00,
2013-08-06 03:55:00,48.3,38.6,29.94,ESE,121,0.0,0.0,69,0.00,,,0.00,Wunderground v.1.15,2013-08-06 10:55:00,
2013-08-06 04:00:00,48.3,38.6,29.94,ESE,121,0.0,0.0,69,0.00,,,0.00,Wunderground v.1.15,2013-08-06 11:00:00,
2013-08-06 04:10:00,47.9,38.6,29.94,ESE,121,0.0,0.0,70,0.00,,,0.00,Wunderground v.1.15,2013-08-06 11:10:00,
2013-08-06 04:15:00,47.7,38.8,29.94,ESE,121,0.0,0.0,71,0.00,,,0.00,Wunderground v.1.15,2013-08-06 11:15:00,
2013-08-06 04:20:00,47.7,38.4,29.94,ESE,121,0.0,0.0,70,0.00,,,0.00,Wunderground v.1.15,2013-08-06 11:20:00,
2013-08-06 04:30:00,47.3,38.4,29.94,ESE,121,0.0,0.0,71,0.00,,,0.00,Wunderground v.1.15,2013-08-06 11:30:00,
2013-08-06 04:40:00,47.3,38.4,29.94,ESE,121,0.0,0.0,71,0.00,,,0.00,Wunderground v.1.15,2013-08-06 11:40:00,
2013-08-06 04:45:00,47.0,38.1,29.95,ESE,121,0.0,0.0,71,0.00,,,0.00,Wunderground v.1.15,2013-08-06 11:45:00,
2013-08-06 04:50:00,47.0,38.4,29.95,ESE,121,0.0,0.0,72,0.00,,,0.00,Wunderground v.1.15,2013-08-06 11:50:00,
2013-08-06 05:00:00,46.8,38.2,29.95,ESE,121,0.0,0.0,72,0.00,,,0.00,Wunderground v.1.15,2013-08-06 12:00:00,
2013-08-06 05:05:00,46.7,38.1,29.95,ESE,121,0.0,0.0,72,0.00,,,0.00,Wunderground v.1.15,2013-08-06 12:05:00,
2013-08-06 05:10:00,46.5,38.3,29.95,ESE,121,0.0,0.0,73,0.00,,,0.00,Wunderground v.1.15,2013-08-06 12:10:00,
2013-08-06 05:20:00,46.2,38.0,29.95,ESE,121,0.0,0.0,73,0.00,,,0.00,Wunderground v.1.15,2013-08-06 12:20:00,
2013-08-06 05:25:00,46.2,38.0,29.95,ESE,121,0.0,0.0,73,0.00,,,0.00,Wunderground v.1.15,2013-08-06 12:25:00,
2013-08-06 05:30:00,46.2,38.0,29.95,ESE,121,0.0,0.0,73,0.00,,,0.00,Wunderground v.1.15,2013-08-06 12:30:00,
2013-08-06 05:35:00,46.1,37.9,29.95,ESE,121,0.0,0.0,73,0.00,,,0.00,Wunderground v.1.15,2013-08-06 12:35:00,
2013-08-06 05:40:00,46.0,37.8,29.95,ESE,121,0.0,0.0,73,0.00,,,0.00,Wunderground v.1.15,2013-08-06 12:40:00,
2013-08-06 05:50:00,45.8,38.0,29.95,ESE,121,0.0,0.0,74,0.00,,,0.00,Wunderground v.1.15,2013-08-06 12:50:00,
2013-08-06 05:55:00,45.7,37.9,29.95,ESE,121,0.0,0.0,74,0.00,,,0.00,Wunderground v.1.15,2013-08-06 12:55:00,
2013-08-06 06:00:00,45.5,37.7,29.96,ESE,121,0.0,0.0,74,0.00,,,0.00,Wunderground v.1.15,2013-08-06 13:00:00,
2013-08-06 06:10:00,45.4,37.6,29.96,ESE,121,0.0,0.0,74,0.00,,,0.00,Wunderground v.1.15,2013-08-06 13:10:00,
2013-08-06 06:15:00,45.2,37.7,29.97,ESE,121,0.0,0.0,75,0.00,,,0.00,Wunderground v.1.15,2013-08-06 13:15:00,
2013-08-06 06:20:00,45.1,37.6,29.97,ESE,121,0.0,0.0,75,0.00,,,0.00,Wunderground v.1.15,2013-08-06 13:20:00,
2013-08-06 06:25:00,44.9,37.5,29.97,ESE,121,0.0,0.0,75,0.00,,,0.00,Wunderground v.1.15,2013-08-06 13:25:00,
2013-08-06 06:35:00,44.9,37.8,29.97,ESE,121,0.0,0.0,76,0.00,,,0.00,Wunderground v.1.15,2013-08-06 13:35:00,
2013-08-06 06:40:00,44.9,37.8,29.97,ESE,121,0.0,0.0,76,0.00,,,0.00,Wunderground v.1.15,2013-08-06 13:40:00,
2013-08-06 06:45:00,45.1,38.0,29.97,ESE,121,0.0,0.0,76,0.00,,,0.00,Wunderground v.1.15,2013-08-06 13:45:00,
2013-08-06 06:55:00,45.4,38.3,29.97,ESE,121,0.0,0.0,76,0.00,,,0.00,Wunderground v.1.15,2013-08-06 13:55:00,
2013-08-06 07:05:00,46.1,38.6,29.98,ESE,121,0.0,0.0,75,0.00,,,0.00,Wunderground v.1.15,2013-08-06 14:05:00,
2013-08-06 07:10:00,46.5,39.0,29.98,ESE,121,0.0,0.0,75,0.00,,,0.00,Wunderground v.1.15,2013-08-06 14:10:00,
2013-08-06 07:20:00,47.4,39.5,29.98,ESE,121,0.0,0.0,74,0.00,,,0.00,Wunderground v.1.15,2013-08-06 14:20:00,
2013-08-06 07:25:00,47.7,39.8,29.98,ESE,121,0.0,0.0,74,0.00,,,0.00,Wunderground v.1.15,2013-08-06 14:25:00,
2013-08-06 07:30:00,48.0,40.1,29.98,ESE,121,0.0,0.0,74,0.00,,,0.00,Wunderground v.1.15,2013-08-06 14:30:00,
2013-08-06 07:40:00,49.2,41.3,29.98,ESE,121,0.0,0.0,74,0.00,,,0.00,Wunderground v.1.15,2013-08-06 14:40:00,
2013-08-06 07:45:00,50.5,41.4,29.98,ESE,121,0.0,0.0,71,0.00,,,0.00,Wunderground v.1.15,2013-08-06 14:45:00,
2013-08-06 07:55:00,52.9,41.4,29.98,ESE,121,0.0,0.0,65,0.00,,,0.00,Wunderground v.1.15,2013-08-06 14:55:00,
2013-08-06 08:05:00,55.0,42.2,29.98,ESE,121,0.0,0.0,62,0.00,,,0.00,Wunderground v.1.15,2013-08-06 15:05:00,
2013-08-06 08:10:00,56.2,42.5,29.98,ESE,121,0.0,0.0,60,0.00,,,0.00,Wunderground v.1.15,2013-08-06 15:10:00,
2013-08-06 08:15:00,57.5,42.8,29.98,ESE,121,0.0,0.0,58,0.00,,,0.00,Wunderground v.1.15,2013-08-06 15:15:00,
2013-08-06 08:20:00,58.6,43.4,29.98,ESE,121,0.0,0.0,57,0.00,,,0.00,Wunderground v.1.15,2013-08-06 15:20:00,
2013-08-06 08:30:00,59.9,44.6,29.98,ESE,121,0.0,0.0,57,0.00,,,0.00,Wunderground v.1.15,2013-08-06 15:30:00,
2013-08-06 08:35:00,61.2,43.9,29.98,ESE,121,0.0,0.0,53,0.00,,,0.00,Wunderground v.1.15,2013-08-06 15:35:00,
2013-08-06 08:45:00,62.0,43.1,29.98,ESE,119,0.0,1.0,50,0.00,,,0.00,Wunderground v.1.15,2013-08-06 15:45:00,
2013-08-06 08:50:00,62.0,42.6,29.98,East,88,1.0,3.0,49,0.00,,,0.00,Wunderground v.1.15,2013-08-06 15:50:00,
2013-08-06 08:55:00,61.8,44.0,29.98,East,89,1.0,3.0,52,0.00,,,0.00,Wunderground v.1.15,2013-08-06 15:55:00,
2013-08-06 09:00:00,62.1,43.7,29.98,East,89,1.0,1.0,51,0.00,,,0.00,Wunderground v.1.15,2013-08-06 16:00:00,
2013-08-06 09:10:00,63.2,43.7,29.98,East,89,0.0,0.0,49,0.00,,,0.00,Wunderground v.1.15,2013-08-06 16:10:00,
2013-08-06 09:15:00,63.2,44.2,29.98,ESE,105,1.0,1.0,50,0.00,,,0.00,Wunderground v.1.15,2013-08-06 16:15:00,
2013-08-06 09:20:00,63.7,45.2,29.98,East,89,1.0,1.0,51,0.00,,,0.00,Wunderground v.1.15,2013-08-06 16:20:00,
2013-08-06 09:30:00,63.9,46.4,29.98,East,92,1.0,1.0,53,0.00,,,0.00,Wunderground v.1.15,2013-08-06 16:30:00,
2013-08-06 09:35:00,64.7,47.2,29.98,ENE,65,1.0,3.0,53,0.00,,,0.00,Wunderground v.1.15,2013-08-06 16:35:00,
2013-08-06 09:40:00,65.6,47.0,29.98,ESE,102,1.0,1.0,51,0.00,,,0.00,Wunderground v.1.15,2013-08-06 16:40:00,
2013-08-06 09:45:00,66.4,46.7,29.97,ESE,106,2.0,2.0,49,0.00,,,0.00,Wunderground v.1.15,2013-08-06 16:45:00,
2013-08-06 09:55:00,67.4,47.6,29.97,ENE,65,2.0,2.0,49,0.00,,,0.00,Wunderground v.1.15,2013-08-06 16:55:00,
2013-08-06 10:00:00,68.3,47.8,29.97,ESE,108,2.0,2.0,48,0.00,,,0.00,Wunderground v.1.15,2013-08-06 17:00:00,
2013-08-06 10:10:00,69.3,47.0,29.97,East,83,2.0,2.0,45,0.00,,,0.00,Wunderground v.1.15,2013-08-06 17:10:00,
2013-08-06 10:15:00,70.1,47.2,29.97,ENE,59,1.0,2.0,44,0.00,,,0.00,Wunderground v.1.15,2013-08-06 17:15:00,
2013-08-06 10:20:00,70.8,46.6,29.97,ENE,65,1.0,2.0,42,0.00,,,0.00,Wunderground v.1.15,2013-08-06 17:20:00,
2013-08-06 10:30:00,71.6,46.6,29.97,ESE,105,2.0,2.0,41,0.00,,,0.00,Wunderground v.1.15,2013-08-06 17:30:00,
2013-08-06 10:35:00,72.3,47.3,29.97,ENE,67,2.0,2.0,41,0.00,,,0.00,Wunderground v.1.15,2013-08-06 17:35:00,
2013-08-06 10:40:00,73.2,47.4,29.97,ESE,111,1.0,1.0,40,0.00,,,0.00,Wunderground v.1.15,2013-08-06 17:40:00,
2013-08-06 10:45:00,73.5,47.0,29.96,East,80,2.0,3.0,39,0.00,,,0.00,Wunderground v.1.15,2013-08-06 17:45:00,
2013-08-06 10:50:00,73.2,47.4,29.96,ENE,67,3.0,3.0,40,0.00,,,0.00,Wunderground v.1.15,2013-08-06 17:50:00,
2013-08-06 10:55:00,74.4,47.8,29.96,East,88,3.0,6.0,39,0.00,,,0.00,Wunderground v.1.15,2013-08-06 17:55:00,
2013-08-06 11:00:00,74.6,48.0,29.96,East,93,2.0,2.0,39,0.00,,,0.00,Wunderground v.1.15,2013-08-06 18:00:00,
2013-08-06 11:10:00,75.6,48.2,29.96,ENE,64,2.0,2.0,38,0.00,,,0.00,Wunderground v.1.15,2013-08-06 18:10:00,
2013-08-06 11:15:00,76.3,48.1,29.95,ESE,107,3.0,3.0,37,0.00,,,0.00,Wunderground v.1.15,2013-08-06 18:15:00,
2013-08-06 11:25:00,77.2,47.4,29.95,East,80,4.0,7.0,35,0.00,,,0.00,Wunderground v.1.15,2013-08-06 18:25:00,
2013-08-06 11:35:00,77.9,47.3,29.95,ENE,72,4.0,4.0,34,0.00,,,0.00,Wunderground v.1.15,2013-08-06 18:35:00,
2013-08-06 11:40:00,77.9,47.3,29.95,East,94,5.0,8.0,34,0.00,,,0.00,Wunderground v.1.15,2013-08-06 18:40:00,
2013-08-06 11:45:00,78.6,47.9,29.95,East,87,6.0,8.0,34,0.00,,,0.00,Wunderground v.1.15,2013-08-06 18:45:00,
2013-08-06 11:50:00,79.2,46.8,29.95,East,84,5.0,5.0,32,0.00,,,0.00,Wunderground v.1.15,2013-08-06 18:50:00,
2013-08-06 12:00:00,80.5,47.1,29.94,East,89,5.0,8.0,31,0.00,,,0.00,Wunderground v.1.15,2013-08-06 19:00:00,
2013-08-06 12:05:00,81.1,46.7,29.94,East,80,5.0,8.0,30,0.00,,,0.00,Wunderground v.1.15,2013-08-06 19:05:00,
2013-08-06 12:10:00,81.4,46.1,29.94,East,79,5.0,5.0,29,0.00,,,0.00,Wunderground v.1.15,2013-08-06 19:10:00,
2013-08-06 12:20:00,82.6,45.2,29.94,SE,124,3.0,3.0,27,0.00,,,0.00,Wunderground v.1.15,2013-08-06 19:20:00,
2013-08-06 12:25:00,83.4,46.9,29.94,ENE,66,3.0,3.0,28,0.00,,,0.00,Wunderground v.1.15,2013-08-06 19:25:00,
2013-08-06 12:30:00,84.3,45.7,29.94,South,182,2.0,4.0,26,0.00,,,0.00,Wunderground v.1.15,2013-08-06 19:30:00,
2013-08-06 12:40:00,83.0,46.5,29.94,NNW,337,2.0,2.0,28,0.00,,,0.00,Wunderground v.1.15,2013-08-06 19:40:00,
2013-08-06 12:45:00,83.2,45.7,29.93,East,79,2.0,5.0,27,0.00,,,0.00,Wunderground v.1.15,2013-08-06 19:45:00,
2013-08-06 12:50:00,83.2,46.7,29.93,NNE,26,2.0,2.0,28,0.00,,,0.00,Wunderground v.1.15,2013-08-06 19:50:00,
2013-08-06 13:00:00,84.3,44.6,29.93,West,259,4.0,4.0,25,0.00,,,0.00,Wunderground v.1.15,2013-08-06 20:00:00,
2013-08-06 13:10:00,84.9,46.2,29.93,ESE,113,2.0,3.0,26,0.00,,,0.00,Wunderground v.1.15,2013-08-06 20:10:00,
2013-08-06 13:15:00,83.8,46.2,29.93,ENE,74,3.0,4.0,27,0.00,,,0.00,Wunderground v.1.15,2013-08-06 20:15:00,
2013-08-06 13:20:00,83.4,46.9,29.93,NE,34,4.0,6.0,28,0.00,,,0.00,Wunderground v.1.15,2013-08-06 20:20:00,
2013-08-06 13:30:00,82.6,46.2,29.94,WSW,240,5.0,5.0,28,0.00,,,0.00,Wunderground v.1.15,2013-08-06 20:30:00,
2013-08-06 13:35:00,81.6,46.3,29.94,ENE,69,5.0,5.0,29,0.00,,,0.00,Wunderground v.1.15,2013-08-06 20:35:00,
2013-08-06 13:40:00,80.7,48.1,29.94,SE,129,6.0,6.0,32,0.00,,,0.00,Wunderground v.1.15,2013-08-06 20:40:00,
2013-08-06 13:50:00,79.8,48.9,29.94,ESE,107,7.0,9.0,34,0.00,,,0.00,Wunderground v.1.15,2013-08-06 20:50:00,
2013-08-06 13:55:00,80.1,50.0,29.94,East,82,6.0,9.0,35,0.00,,,0.00,Wunderground v.1.15,2013-08-06 20:55:00,
2013-08-06 14:00:00,81.2,48.5,29.93,ENE,72,6.0,7.0,32,0.00,,,0.00,Wunderground v.1.15,2013-08-06 21:00:00,
2013-08-06 14:10:00,83.6,48.0,29.93,ENE,70,4.0,12.0,29,0.00,,,0.00,Wunderground v.1.15,2013-08-06 21:10:00,
2013-08-06 14:15:00,83.8,47.2,29.93,NNE,32,5.0,12.0,28,0.00,,,0.00,Wunderground v.1.15,2013-08-06 21:15:00,
2013-08-06 14:20:00,83.6,47.0,29.93,ESE,120,6.0,8.0,28,0.00,,,0.00,Wunderground v.1.15,2013-08-06 21:20:00,
2013-08-06 14:30:00,83.8,47.2,29.92,North,360,4.0,4.0,28,0.00,,,0.00,Wunderground v.1.15,2013-08-06 21:30:00,
2013-08-06 14:40:00,84.5,46.8,29.92,ESE,111,5.0,9.0,27,0.00,,,0.00,Wunderground v.1.15,2013-08-06 21:40:00,
2013-08-06 14:45:00,84.1,46.5,29.92,ESE,123,6.0,9.0,27,0.00,,,0.00,Wunderground v.1.15,2013-08-06 21:45:00,
2013-08-06 14:55:00,83.6,47.0,29.92,SE,126,4.0,6.0,28,0.00,,,0.00,Wunderground v.1.15,2013-08-06 21:55:00,
2013-08-06 15:00:00,83.4,48.7,29.92,East,84,4.0,10.0,30,0.00,,,0.00,Wunderground v.1.15,2013-08-06 22:00:00,
2013-08-06 15:05:00,84.0,46.4,29.92,SW,228,3.0,10.0,27,0.00,,,0.00,Wunderground v.1.15,2013-08-06 22:05:00,
2013-08-06 15:10:00,84.7,48.0,29.92,West,280,4.0,7.0,28,0.00,,,0.00,Wunderground v.1.15,2013-08-06 22:10:00,
2013-08-06 15:20:00,84.1,47.5,29.91,ENE,70,4.0,5.0,28,0.00,,,0.00,Wunderground v.1.15,2013-08-06 22:20:00,
2013-08-06 15:25:00,84.5,46.8,29.91,SSE,161,5.0,5.0,27,0.00,,,0.00,Wunderground v.1.15,2013-08-06 22:25:00,
2013-08-06 15:30:00,84.7,48.0,29.91,South,177,3.0,3.0,28,0.00,,,0.00,Wunderground v.1.15,2013-08-06 22:30:00,
2013-08-06 15:35:00,84.1,46.5,29.91,ESE,109,4.0,4.0,27,0.00,,,0.00,Wunderground v.1.15,2013-08-06 22:35:00,
2013-08-06 15:45:00,84.0,46.4,29.91,NE,56,4.0,6.0,27,0.00,,,0.00,Wunderground v.1.15,2013-08-06 22:45:00,
2013-08-06 15:50:00,83.2,45.7,29.91,ENE,76,3.0,3.0,27,0.00,,,0.00,Wunderground v.1.15,2013-08-06 22:50:00,
2013-08-06 15:55:00,82.0,45.7,29.91,ESE,123,5.0,5.0,28,0.00,,,0.00,Wunderground v.1.15,2013-08-06 22:55:00,
2013-08-06 16:00:00,82.4,46.0,29.91,ESE,110,5.0,5.0,28,0.00,,,0.00,Wunderground v.1.15,2013-08-06 23:00:00,
2013-08-06 16:10:00,83.4,46.9,29.91,NNW,331,3.0,3.0,28,0.00,,,0.00,Wunderground v.1.15,2013-08-06 23:10:00,
2013-08-06 16:15:00,83.8,46.2,29.91,NE,36,3.0,5.0,27,0.00,,,0.00,Wunderground v.1.15,2013-08-06 23:15:00,
2013-08-06 16:25:00,82.8,45.4,29.91,East,89,6.0,7.0,27,0.00,,,0.00,Wunderground v.1.15,2013-08-06 23:25:00,
2013-08-06 16:30:00,82.2,44.9,29.91,ENE,64,5.0,7.0,27,0.00,,,0.00,Wunderground v.1.15,2013-08-06 23:30:00,
2013-08-06 16:35:00,81.4,45.2,29.91,SE,124,4.0,7.0,28,0.00,,,0.00,Wunderground v.1.15,2013-08-06 23:35:00,
2013-08-06 16:40:00,81.6,47.2,29.91,North,360,4.0,4.0,30,0.00,,,0.00,Wunderground v.1.15,2013-08-06 23:40:00,
2013-08-06 16:50:00,82.0,46.6,29.91,SE,142,4.0,4.0,29,0.00,,,0.00,Wunderground v.1.15,2013-08-06 23:50:00,
2013-08-06 16:55:00,82.2,44.9,29.91,East,96,5.0,5.0,27,0.00,,,0.00,Wunderground v.1.15,2013-08-06 23:55:00,
2013-08-06 17:00:00,82.6,46.2,29.90,ENE,75,5.0,10.0,28,0.00,,,0.00,Wunderground v.1.15,2013-08-07 00:00:00,
2013-08-06 17:10:00,83.2,45.7,29.90,East,80,5.0,5.0,27,0.00,,,0.00,Wunderground v.1.15,2013-08-07 00:10:00,
2013-08-06 17:15:00,82.8,46.4,29.89,ESE,104,6.0,9.0,28,0.00,,,0.00,Wunderground v.1.15,2013-08-07 00:15:00,
2013-08-06 17:25:00,82.0,44.7,29.89,East,80,7.0,11.0,27,0.00,,,0.00,Wunderground v.1.15,2013-08-07 00:25:00,
2013-08-06 17:35:00,81.2,45.0,29.89,ENE,58,6.0,7.0,28,0.00,,,0.00,Wunderground v.1.15,2013-08-07 00:35:00,
2013-08-06 17:40:00,81.2,45.0,29.89,ENE,71,5.0,5.0,28,0.00,,,0.00,Wunderground v.1.15,2013-08-07 00:40:00,
2013-08-06 17:50:00,80.5,44.4,29.89,East,93,9.0,9.0,28,0.00,,,0.00,Wunderground v.1.15,2013-08-07 00:50:00,
2013-08-06 17:55:00,80.7,44.6,29.89,ENE,65,7.0,9.0,28,0.00,,,0.00,Wunderground v.1.15,2013-08-07 00:55:00,
2013-08-06 18:00:00,80.7,43.6,29.89,ESE,102,7.0,11.0,27,0.00,,,0.00,Wunderground v.1.15,2013-08-07 01:00:00,
2013-08-06 18:10:00,80.3,44.2,29.89,SW,223,7.0,7.0,28,0.00,,,0.00,Wunderground v.1.15,2013-08-07 01:10:00,
2013-08-06 18:15:00,80.3,46.0,29.89,East,96,5.0,7.0,30,0.00,,,0.00,Wunderground v.1.15,2013-08-07 01:15:00,
2013-08-06 18:25:00,79.8,46.5,29.89,East,86,4.0,6.0,31,0.00,,,0.00,Wunderground v.1.15,2013-08-07 01:25:00,
2013-08-06 18:30:00,79.2,45.9,29.89,ESE,113,5.0,11.0,31,0.00,,,0.00,Wunderground v.1.15,2013-08-07 01:30:00,
2013-08-06 18:35:00,78.6,46.3,29.89,NE,35,5.0,11.0,32,0.00,,,0.00,Wunderground v.1.15,2013-08-07 01:35:00,
2013-08-06 18:40:00,78.3,46.0,29.89,ESE,112,5.0,5.0,32,0.00,,,0.00,Wunderground v.1.15,2013-08-07 01:40:00,
2013-08-06 18:50:00,77.7,47.1,29.90,North,360,4.0,6.0,34,0.00,,,0.00,Wunderground v.1.15,2013-08-07 01:50:00,
2013-08-06 19:00:00,76.8,47.1,29.91,ENE,61,3.0,4.0,35,0.00,,,0.00,Wunderground v.1.15,2013-08-07 02:00:00,
2013-08-06 19:05:00,76.5,47.6,29.91,ESE,120,3.0,5.0,36,0.00,,,0.00,Wunderground v.1.15,2013-08-07 02:05:00,
2013-08-06 19:15:00,76.0,47.8,29.91,ESE,123,2.0,2.0,37,0.00,,,0.00,Wunderground v.1.15,2013-08-07 02:15:00,
2013-08-06 19:20:00,75.3,47.9,29.91,East,93,1.0,1.0,38,0.00,,,0.00,Wunderground v.1.15,2013-08-07 02:20:00,
2013-08-06 19:25:00,74.6,48.0,29.91,ENE,78,2.0,2.0,39,0.00,,,0.00,Wunderground v.1.15,2013-08-07 02:25:00,
2013-08-06 19:30:00,74.2,48.3,29.91,East,85,1.0,1.0,40,0.00,,,0.00,Wunderground v.1.15,2013-08-07 02:30:00,
2013-08-06 19:40:00,73.2,48.7,29.91,East,98,1.0,1.0,42,0.00,,,0.00,Wunderground v.1.15,2013-08-07 02:40:00,
2013-08-06 19:50:00,72.7,48.3,29.91,East,100,0.0,0.0,42,0.00,,,0.00,Wunderground v.1.15,2013-08-07 02:50:00,
2013-08-06 19:55:00,72.1,48.4,29.91,East,100,0.0,2.0,43,0.00,,,0.00,Wunderground v.1.15,2013-08-07 02:55:00,
2013-08-06 20:00:00,71.8,48.1,29.92,East,100,0.0,0.0,43,0.00,,,0.00,Wunderground v.1.15,2013-08-07 03:00:00,
2013-08-06 20:10:00,71.3,48.3,29.92,East,100,0.0,0.0,44,0.00,,,0.00,Wunderground v.1.15,2013-08-07 03:10:00,
2013-08-06 20:15:00,70.9,47.9,29.92,ESE,119,0.0,1.0,44,0.00,,,0.00,Wunderground v.1.15,2013-08-07 03:15:00,
2013-08-06 20:20:00,70.6,48.2,29.92,South,188,0.0,0.0,45,0.00,,,0.00,Wunderground v.1.15,2013-08-07 03:20:00,
2013-08-06 20:30:00,69.8,48.7,29.92,East,90,0.0,1.0,47,0.00,,,0.00,Wunderground v.1.15,2013-08-07 03:30:00,
2013-08-06 20:35:00,69.1,47.4,29.92,East,90,0.0,1.0,46,0.00,,,0.00,Wunderground v.1.15,2013-08-07 03:35:00,
2013-08-06 20:40:00,68.6,48.1,29.92,East,90,0.0,0.0,48,0.00,,,0.00,Wunderground v.1.15,2013-08-07 03:40:00,
2013-08-06 20:50:00,67.9,48.6,29.92,ESE,103,0.0,2.0,50,0.00,,,0.00,Wunderground v.1.15,2013-08-07 03:50:00,
2013-08-06 21:00:00,67.8,49.0,29.93,East,96,1.0,6.0,51,0.00,,,0.00,Wunderground v.1.15,2013-08-07 04:00:00,
2013-08-06 21:05:00,67.6,49.3,29.93,East,98,3.0,6.0,52,0.00,,,0.00,Wunderground v.1.15,2013-08-07 04:05:00,
2013-08-06 21:10:00,67.4,49.2,29.93,ENE,59,4.0,4.0,52,0.00,,,0.00,Wunderground v.1.15,2013-08-07 04:10:00,
2013-08-06 21:15:00,67.3,49.6,29.94,NNE,26,2.0,4.0,53,0.00,,,0.00,Wunderground v.1.15,2013-08-07 04:15:00,
2013-08-06 21:20:00,66.9,49.7,29.94,NNE,21,2.0,2.0,54,0.00,,,0.00,Wunderground v.1.15,2013-08-07 04:20:00,
2013-08-06 21:30:00,66.1,49.5,29.95,ENE,59,1.0,1.0,55,0.00,,,0.00,Wunderground v.1.15,2013-08-07 04:30:00,
2013-08-06 21:35:00,65.6,49.5,29.95,East,98,1.0,3.0,56,0.00,,,0.00,Wunderground v.1.15,2013-08-07 04:35:00,
2013-08-06 21:45:00,65.0,49.9,29.95,NE,36,1.0,4.0,58,0.00,,,0.00,Wunderground v.1.15,2013-08-07 04:45:00,
2013-08-06 21:55:00,64.3,49.7,29.95,East,98,1.0,1.0,59,0.00,,,0.00,Wunderground v.1.15,2013-08-07 04:55:00,
2013-08-06 22:00:00,64.2,50.0,29.96,East,94,1.0,3.0,60,0.00,,,0.00,Wunderground v.1.15,2013-08-07 05:00:00,
2013-08-06 22:10:00,63.9,50.2,29.96,ESE,114,2.0,4.0,61,0.00,,,0.00,Wunderground v.1.15,2013-08-07 05:10:00,
2013-08-06 22:15:00,63.5,50.2,29.97,NE,49,3.0,4.0,62,0.00,,,0.00,Wunderground v.1.15,2013-08-07 05:15:00,
2013-08-06 22:20:00,63.2,50.0,29.97,South,173,4.0,4.0,62,0.00,,,0.00,Wunderground v.1.15,2013-08-07 05:20:00,
2013-08-06 22:30:00,62.9,50.1,29.97,SSE,162,3.0,3.0,63,0.00,,,0.00,Wunderground v.1.15,2013-08-07 05:30:00,
2013-08-06 22:40:00,62.6,50.2,29.97,ENE,69,3.0,3.0,64,0.00,,,0.00,Wunderground v.1.15,2013-08-07 05:40:00,
2013-08-06 22:45:00,62.3,50.0,29.98,SE,142,2.0,3.0,64,0.00,,,0.00,Wunderground v.1.15,2013-08-07 05:45:00,
2013-08-06 22:50:00,62.1,50.2,29.98,ESE,109,1.0,1.0,65,0.00,,,0.00,Wunderground v.1.15,2013-08-07 05:50:00,
2013-08-06 23:00:00,61.5,49.6,29.98,ESE,109,0.0,0.0,65,0.00,,,0.00,Wunderground v.1.15,2013-08-07 06:00:00,
2013-08-06 23:05:00,60.9,49.1,29.98,ESE,109,0.0,0.0,65,0.00,,,0.00,Wunderground v.1.15,2013-08-07 06:05:00,
2013-08-06 23:10:00,60.5,49.5,29.98,ESE,109,0.0,0.0,67,0.00,,,0.00,Wunderground v.1.15,2013-08-07 06:10:00,
2013-08-06 23:20:00,60.2,50.0,29.99,South,175,0.0,0.0,69,0.00,,,0.00,Wunderground v.1.15,2013-08-07 06:20:00,
2013-08-06 23:25:00,60.1,49.9,29.99,ESE,109,1.0,1.0,69,0.00,,,0.00,Wunderground v.1.15,2013-08-07 06:25:00,
2013-08-06 23:30:00,59.9,49.7,29.99,ESE,109,0.0,0.0,69,0.00,,,0.00,Wunderground v.1.15,2013-08-07 06:30:00,
2013-08-06 23:40:00,59.0,49.2,29.99,ENE,60,0.0,0.0,70,0.00,,,0.00,Wunderground v.1.15,2013-08-07 06:40:00,
2013-08-06 23:45:00,58.9,49.5,29.99,ENE,60,0.0,0.0,71,0.00,,,0.00,Wunderground v.1.15,2013-08-07 06:45:00,
2013-08-06 23:50:00,58.6,48.8,29.99,ENE,60,0.0,0.0,70,0.00,,,0.00,Wunderground v.1.15,2013-08-07 06:50:00,
2013-08-06 23:55:00,58.3,48.9,29.99,ENE,60,0.0,0.0,71,0.00,,,0.00,Wunderground v.1.15,2013-08-07 06:55:00,